sensor_id;sensor_type;location;lat;lon;timestamp;P1;durP1;ratioP1;P2;durP2;ratioP2
14167;SDS011;7163;50.626;12.922;2022-09-30T00:03:31;11.83;;;7.17;;
14167;SDS011;7163;50.626;12.922;2022-09-30T00:08:32;10.23;;;6.87;;
14167;SDS011;7163;50.626;12.922;2022-09-30T00:13:34;10.50;;;6.53;;
14167;SDS011;7163;50.626;12.922;2022-09-30T00:18:36;11.00;;;6.87;;
14167;SDS011;7163;50.626;12.922;2022-09-30T00:23:36;12.07;;;7.43;;
14167;SDS011;7163;50.626;12.922;2022-09-30T00:28:38;11.23;;;6.73;;
14167;SDS011;7163;50.626;12.922;2022-09-30T00:33:39;7.97;;;6.13;;
14167;SDS011;7163;50.626;12.922;2022-09-30T00:38:41;11.80;;;7.00;;
14167;SDS011;7163;50.626;12.922;2022-09-30T00:43:43;10.33;;;7.43;;
14167;SDS011;7163;50.626;12.922;2022-09-30T00:48:50;9.30;;;6.70;;
14167;SDS011;7163;50.626;12.922;2022-09-30T00:53:54;13.77;;;6.40;;
14167;SDS011;7163;50.626;12.922;2022-09-30T01:04:05;9.87;;;6.37;;
14167;SDS011;7163;50.626;12.922;2022-09-30T01:09:10;8.27;;;5.73;;
14167;SDS011;7163;50.626;12.922;2022-09-30T01:14:11;9.57;;;5.63;;
14167;SDS011;7163;50.626;12.922;2022-09-30T01:19:20;8.77;;;5.70;;
14167;SDS011;7163;50.626;12.922;2022-09-30T01:30:08;10.07;;;5.83;;
14167;SDS011;7163;50.626;12.922;2022-09-30T01:35:18;7.33;;;5.33;;
14167;SDS011;7163;50.626;12.922;2022-09-30T01:40:27;8.97;;;5.23;;
14167;SDS011;7163;50.626;12.922;2022-09-30T01:45:33;10.20;;;6.20;;
14167;SDS011;7163;50.626;12.922;2022-09-30T01:50:48;7.63;;;5.20;;
14167;SDS011;7163;50.626;12.922;2022-09-30T01:56:00;11.13;;;6.03;;
14167;SDS011;7163;50.626;12.922;2022-09-30T02:01:05;8.57;;;5.83;;
14167;SDS011;7163;50.626;12.922;2022-09-30T02:06:09;9.23;;;6.40;;
14167;SDS011;7163;50.626;12.922;2022-09-30T02:11:16;10.43;;;6.70;;
14167;SDS011;7163;50.626;12.922;2022-09-30T02:16:21;10.07;;;6.30;;
14167;SDS011;7163;50.626;12.922;2022-09-30T02:21:26;8.70;;;5.63;;
14167;SDS011;7163;50.626;12.922;2022-09-30T02:26:36;12.40;;;6.37;;
14167;SDS011;7163;50.626;12.922;2022-09-30T02:31:38;13.50;;;5.57;;
14167;SDS011;7163;50.626;12.922;2022-09-30T02:36:44;11.37;;;6.47;;
14167;SDS011;7163;50.626;12.922;2022-09-30T02:41:50;10.00;;;6.13;;
14167;SDS011;7163;50.626;12.922;2022-09-30T02:46:56;10.20;;;5.73;;
14167;SDS011;7163;50.626;12.922;2022-09-30T02:52:13;8.87;;;5.37;;
14167;SDS011;7163;50.626;12.922;2022-09-30T02:57:28;8.87;;;6.10;;
14167;SDS011;7163;50.626;12.922;2022-09-30T03:02:34;10.13;;;6.13;;
14167;SDS011;7163;50.626;12.922;2022-09-30T03:07:35;11.57;;;6.97;;
14167;SDS011;7163;50.626;12.922;2022-09-30T03:17:47;9.63;;;6.30;;
14167;SDS011;7163;50.626;12.922;2022-09-30T03:23:18;9.37;;;5.53;;
14167;SDS011;7163;50.626;12.922;2022-09-30T03:28:35;9.80;;;6.20;;
14167;SDS011;7163;50.626;12.922;2022-09-30T03:39:00;10.60;;;7.27;;
14167;SDS011;7163;50.626;12.922;2022-09-30T03:44:20;12.40;;;8.00;;
14167;SDS011;7163;50.626;12.922;2022-09-30T03:49:25;10.60;;;7.17;;
14167;SDS011;7163;50.626;12.922;2022-09-30T03:54:29;10.70;;;7.17;;
14167;SDS011;7163;50.626;12.922;2022-09-30T03:59:30;11.40;;;7.30;;
14167;SDS011;7163;50.626;12.922;2022-09-30T04:04:30;15.33;;;9.30;;
14167;SDS011;7163;50.626;12.922;2022-09-30T04:09:31;13.90;;;7.80;;
14167;SDS011;7163;50.626;12.922;2022-09-30T04:14:31;13.80;;;8.47;;
14167;SDS011;7163;50.626;12.922;2022-09-30T04:19:32;15.73;;;9.33;;
14167;SDS011;7163;50.626;12.922;2022-09-30T04:24:37;17.23;;;11.40;;
14167;SDS011;7163;50.626;12.922;2022-09-30T04:29:38;17.97;;;11.13;;
14167;SDS011;7163;50.626;12.922;2022-09-30T04:34:38;16.40;;;10.30;;
14167;SDS011;7163;50.626;12.922;2022-09-30T04:39:39;16.00;;;9.47;;
14167;SDS011;7163;50.626;12.922;2022-09-30T04:44:39;14.33;;;8.93;;
14167;SDS011;7163;50.626;12.922;2022-09-30T04:49:40;16.90;;;11.10;;
14167;SDS011;7163;50.626;12.922;2022-09-30T04:54:40;19.13;;;11.63;;
14167;SDS011;7163;50.626;12.922;2022-09-30T04:59:41;15.47;;;10.57;;
14167;SDS011;7163;50.626;12.922;2022-09-30T05:04:42;14.33;;;10.20;;
14167;SDS011;7163;50.626;12.922;2022-09-30T05:09:43;13.17;;;9.77;;
14167;SDS011;7163;50.626;12.922;2022-09-30T05:14:43;15.30;;;9.63;;
14167;SDS011;7163;50.626;12.922;2022-09-30T05:19:43;13.57;;;9.33;;
14167;SDS011;7163;50.626;12.922;2022-09-30T05:24:44;25.20;;;12.37;;
14167;SDS011;7163;50.626;12.922;2022-09-30T05:29:44;82.17;;;38.47;;
14167;SDS011;7163;50.626;12.922;2022-09-30T05:34:45;38.27;;;22.63;;
14167;SDS011;7163;50.626;12.922;2022-09-30T05:39:46;13.97;;;10.07;;
14167;SDS011;7163;50.626;12.922;2022-09-30T05:44:46;13.60;;;8.90;;
14167;SDS011;7163;50.626;12.922;2022-09-30T05:49:47;18.30;;;9.37;;
14167;SDS011;7163;50.626;12.922;2022-09-30T05:54:47;14.03;;;8.80;;
14167;SDS011;7163;50.626;12.922;2022-09-30T05:59:49;14.00;;;9.17;;
14167;SDS011;7163;50.626;12.922;2022-09-30T06:04:49;21.53;;;13.10;;
14167;SDS011;7163;50.626;12.922;2022-09-30T06:09:50;23.00;;;14.27;;
14167;SDS011;7163;50.626;12.922;2022-09-30T06:14:57;23.87;;;14.43;;
14167;SDS011;7163;50.626;12.922;2022-09-30T06:19:58;23.90;;;14.80;;
14167;SDS011;7163;50.626;12.922;2022-09-30T06:25:01;28.70;;;11.37;;
14167;SDS011;7163;50.626;12.922;2022-09-30T06:30:05;12.50;;;8.30;;
14167;SDS011;7163;50.626;12.922;2022-09-30T06:35:07;20.60;;;11.40;;
14167;SDS011;7163;50.626;12.922;2022-09-30T06:40:07;15.63;;;9.33;;
14167;SDS011;7163;50.626;12.922;2022-09-30T06:45:08;13.17;;;8.00;;
14167;SDS011;7163;50.626;12.922;2022-09-30T06:50:10;15.87;;;9.33;;
14167;SDS011;7163;50.626;12.922;2022-09-30T06:55:10;14.57;;;9.17;;
14167;SDS011;7163;50.626;12.922;2022-09-30T07:00:11;10.40;;;7.40;;
14167;SDS011;7163;50.626;12.922;2022-09-30T07:05:13;13.73;;;7.90;;
14167;SDS011;7163;50.626;12.922;2022-09-30T07:10:14;14.90;;;8.50;;
14167;SDS011;7163;50.626;12.922;2022-09-30T07:15:15;15.40;;;7.90;;
14167;SDS011;7163;50.626;12.922;2022-09-30T07:20:21;15.47;;;8.60;;
14167;SDS011;7163;50.626;12.922;2022-09-30T07:25:21;14.87;;;8.37;;
14167;SDS011;7163;50.626;12.922;2022-09-30T07:30:22;14.10;;;9.13;;
14167;SDS011;7163;50.626;12.922;2022-09-30T07:35:22;19.27;;;10.83;;
14167;SDS011;7163;50.626;12.922;2022-09-30T07:40:23;10.43;;;6.33;;
14167;SDS011;7163;50.626;12.922;2022-09-30T07:45:23;10.83;;;5.80;;
14167;SDS011;7163;50.626;12.922;2022-09-30T07:50:24;8.30;;;5.47;;
14167;SDS011;7163;50.626;12.922;2022-09-30T07:55:24;11.77;;;5.83;;
14167;SDS011;7163;50.626;12.922;2022-09-30T08:00:24;5.33;;;4.17;;
14167;SDS011;7163;50.626;12.922;2022-09-30T08:05:25;10.43;;;5.90;;
14167;SDS011;7163;50.626;12.922;2022-09-30T08:10:25;4.67;;;3.20;;
14167;SDS011;7163;50.626;12.922;2022-09-30T08:15:26;5.95;;;3.85;;
14167;SDS011;7163;50.626;12.922;2022-09-30T08:20:27;6.72;;;3.60;;
14167;SDS011;7163;50.626;12.922;2022-09-30T08:25:27;5.63;;;3.88;;
14167;SDS011;7163;50.626;12.922;2022-09-30T08:30:28;8.35;;;5.30;;
14167;SDS011;7163;50.626;12.922;2022-09-30T08:35:28;6.72;;;3.35;;
14167;SDS011;7163;50.626;12.922;2022-09-30T08:40:32;7.00;;;3.00;;
14167;SDS011;7163;50.626;12.922;2022-09-30T08:45:40;3.60;;;2.50;;
14167;SDS011;7163;50.626;12.922;2022-09-30T08:55:54;6.72;;;2.75;;
14167;SDS011;7163;50.626;12.922;2022-09-30T09:00:59;4.18;;;2.05;;
14167;SDS011;7163;50.626;12.922;2022-09-30T09:06:07;2.70;;;1.60;;
14167;SDS011;7163;50.626;12.922;2022-09-30T09:11:34;3.17;;;2.10;;
14167;SDS011;7163;50.626;12.922;2022-09-30T09:16:38;8.95;;;2.50;;
14167;SDS011;7163;50.626;12.922;2022-09-30T09:21:46;8.02;;;2.53;;
14167;SDS011;7163;50.626;12.922;2022-09-30T09:26:53;3.55;;;1.80;;
14167;SDS011;7163;50.626;12.922;2022-09-30T09:31:54;4.93;;;1.83;;
14167;SDS011;7163;50.626;12.922;2022-09-30T09:37:07;2.58;;;1.90;;
14167;SDS011;7163;50.626;12.922;2022-09-30T09:47:33;3.20;;;2.28;;
14167;SDS011;7163;50.626;12.922;2022-09-30T09:58:05;2.20;;;1.80;;
14167;SDS011;7163;50.626;12.922;2022-09-30T10:13:26;3.13;;;1.80;;
14167;SDS011;7163;50.626;12.922;2022-09-30T10:18:33;2.67;;;1.80;;
14167;SDS011;7163;50.626;12.922;2022-09-30T10:23:36;2.40;;;1.83;;
14167;SDS011;7163;50.626;12.922;2022-09-30T10:28:51;2.88;;;2.03;;
14167;SDS011;7163;50.626;12.922;2022-09-30T10:33:59;3.97;;;1.90;;
14167;SDS011;7163;50.626;12.922;2022-09-30T10:39:06;3.75;;;1.70;;
14167;SDS011;7163;50.626;12.922;2022-09-30T10:44:14;1.80;;;1.52;;
14167;SDS011;7163;50.626;12.922;2022-09-30T10:49:27;2.38;;;1.50;;
14167;SDS011;7163;50.626;12.922;2022-09-30T10:59:56;1.75;;;1.45;;
14167;SDS011;7163;50.626;12.922;2022-09-30T11:05:21;1.95;;;1.48;;
14167;SDS011;7163;50.626;12.922;2022-09-30T11:10:35;3.92;;;1.77;;
14167;SDS011;7163;50.626;12.922;2022-09-30T11:16:00;3.33;;;2.00;;
14167;SDS011;7163;50.626;12.922;2022-09-30T11:21:08;2.28;;;1.77;;
14167;SDS011;7163;50.626;12.922;2022-09-30T11:31:35;4.05;;;2.40;;
14167;SDS011;7163;50.626;12.922;2022-09-30T11:36:40;4.18;;;2.65;;
14167;SDS011;7163;50.626;12.922;2022-09-30T11:42:00;5.85;;;2.33;;
14167;SDS011;7163;50.626;12.922;2022-09-30T12:02:49;4.72;;;2.15;;
14167;SDS011;7163;50.626;12.922;2022-09-30T12:07:54;4.63;;;1.92;;
14167;SDS011;7163;50.626;12.922;2022-09-30T12:13:00;4.10;;;2.25;;
14167;SDS011;7163;50.626;12.922;2022-09-30T12:18:04;2.60;;;1.70;;
14167;SDS011;7163;50.626;12.922;2022-09-30T12:49:33;0.98;;;0.90;;
14167;SDS011;7163;50.626;12.922;2022-09-30T12:54:46;1.33;;;1.23;;
14167;SDS011;7163;50.626;12.922;2022-09-30T12:59:51;1.85;;;1.40;;
14167;SDS011;7163;50.626;12.922;2022-09-30T13:05:30;3.03;;;1.60;;
14167;SDS011;7163;50.626;12.922;2022-09-30T13:10:27;1.75;;;1.15;;
14167;SDS011;7163;50.626;12.922;2022-09-30T13:20:49;7.75;;;5.13;;
14167;SDS011;7163;50.626;12.922;2022-09-30T13:25:52;1.50;;;1.33;;
14167;SDS011;7163;50.626;12.922;2022-09-30T13:31:09;2.53;;;1.95;;
14167;SDS011;7163;50.626;12.922;2022-09-30T13:36:16;2.20;;;1.50;;
14167;SDS011;7163;50.626;12.922;2022-09-30T13:41:19;2.25;;;1.23;;
14167;SDS011;7163;50.626;12.922;2022-09-30T13:51:28;2.50;;;1.30;;
14167;SDS011;7163;50.626;12.922;2022-09-30T13:56:32;0.90;;;0.90;;
14167;SDS011;7163;50.626;12.922;2022-09-30T14:17:32;2.95;;;2.00;;
14167;SDS011;7163;50.626;12.922;2022-09-30T14:22:39;1.50;;;1.40;;
14167;SDS011;7163;50.626;12.922;2022-09-30T14:33:19;4.22;;;2.75;;
14167;SDS011;7163;50.626;12.922;2022-09-30T14:38:24;5.25;;;3.10;;
14167;SDS011;7163;50.626;12.922;2022-09-30T14:43:29;5.50;;;3.50;;
14167;SDS011;7163;50.626;12.922;2022-09-30T14:48:35;6.45;;;4.00;;
14167;SDS011;7163;50.626;12.922;2022-09-30T14:53:50;6.82;;;4.53;;
14167;SDS011;7163;50.626;12.922;2022-09-30T14:58:53;6.18;;;3.05;;
14167;SDS011;7163;50.626;12.922;2022-09-30T15:04:01;4.57;;;2.70;;
14167;SDS011;7163;50.626;12.922;2022-09-30T15:09:06;4.43;;;3.50;;
14167;SDS011;7163;50.626;12.922;2022-09-30T15:14:17;11.53;;;6.63;;
14167;SDS011;7163;50.626;12.922;2022-09-30T15:19:21;9.57;;;5.80;;
14167;SDS011;7163;50.626;12.922;2022-09-30T15:24:24;15.40;;;6.30;;
14167;SDS011;7163;50.626;12.922;2022-09-30T15:29:26;7.90;;;4.30;;
14167;SDS011;7163;50.626;12.922;2022-09-30T15:34:27;11.43;;;7.60;;
14167;SDS011;7163;50.626;12.922;2022-09-30T15:39:29;17.13;;;10.10;;
14167;SDS011;7163;50.626;12.922;2022-09-30T15:44:48;29.57;;;18.17;;
14167;SDS011;7163;50.626;12.922;2022-09-30T15:49:50;17.53;;;10.17;;
14167;SDS011;7163;50.626;12.922;2022-09-30T15:54:52;29.73;;;21.93;;
14167;SDS011;7163;50.626;12.922;2022-09-30T15:59:57;41.80;;;29.80;;
14167;SDS011;7163;50.626;12.922;2022-09-30T16:05:01;10.17;;;6.47;;
14167;SDS011;7163;50.626;12.922;2022-09-30T16:10:01;7.90;;;5.67;;
14167;SDS011;7163;50.626;12.922;2022-09-30T16:20:10;15.10;;;8.57;;
14167;SDS011;7163;50.626;12.922;2022-09-30T16:30:29;29.37;;;19.43;;
14167;SDS011;7163;50.626;12.922;2022-09-30T16:35:31;23.53;;;15.27;;
14167;SDS011;7163;50.626;12.922;2022-09-30T16:40:33;39.60;;;22.73;;
14167;SDS011;7163;50.626;12.922;2022-09-30T16:45:38;57.50;;;31.53;;
14167;SDS011;7163;50.626;12.922;2022-09-30T16:50:48;67.80;;;37.50;;
14167;SDS011;7163;50.626;12.922;2022-09-30T16:55:53;74.93;;;39.67;;
14167;SDS011;7163;50.626;12.922;2022-09-30T17:00:54;79.63;;;39.83;;
14167;SDS011;7163;50.626;12.922;2022-09-30T17:05:54;147.57;;;81.27;;
14167;SDS011;7163;50.626;12.922;2022-09-30T17:10:54;312.67;;;144.00;;
14167;SDS011;7163;50.626;12.922;2022-09-30T17:15:56;334.60;;;141.17;;
14167;SDS011;7163;50.626;12.922;2022-09-30T17:20:57;140.07;;;66.83;;
14167;SDS011;7163;50.626;12.922;2022-09-30T17:25:57;22.40;;;13.00;;
14167;SDS011;7163;50.626;12.922;2022-09-30T17:30:58;26.80;;;17.03;;
14167;SDS011;7163;50.626;12.922;2022-09-30T17:35:59;27.83;;;20.57;;
14167;SDS011;7163;50.626;12.922;2022-09-30T17:41:01;67.60;;;38.63;;
14167;SDS011;7163;50.626;12.922;2022-09-30T17:46:20;44.10;;;27.87;;
14167;SDS011;7163;50.626;12.922;2022-09-30T17:51:22;46.53;;;27.30;;
14167;SDS011;7163;50.626;12.922;2022-09-30T17:56:22;41.13;;;25.30;;
14167;SDS011;7163;50.626;12.922;2022-09-30T18:01:23;41.77;;;23.67;;
14167;SDS011;7163;50.626;12.922;2022-09-30T18:06:23;62.00;;;35.60;;
14167;SDS011;7163;50.626;12.922;2022-09-30T18:11:24;31.20;;;17.70;;
14167;SDS011;7163;50.626;12.922;2022-09-30T18:16:26;20.53;;;14.03;;
14167;SDS011;7163;50.626;12.922;2022-09-30T18:21:29;18.70;;;13.07;;
14167;SDS011;7163;50.626;12.922;2022-09-30T18:26:31;19.13;;;11.87;;
14167;SDS011;7163;50.626;12.922;2022-09-30T18:31:32;13.07;;;9.47;;
14167;SDS011;7163;50.626;12.922;2022-09-30T18:36:35;10.87;;;7.37;;
14167;SDS011;7163;50.626;12.922;2022-09-30T18:41:36;9.30;;;6.10;;
14167;SDS011;7163;50.626;12.922;2022-09-30T18:46:37;22.93;;;13.87;;
14167;SDS011;7163;50.626;12.922;2022-09-30T18:51:37;29.70;;;18.10;;
14167;SDS011;7163;50.626;12.922;2022-09-30T18:56:38;16.17;;;10.07;;
14167;SDS011;7163;50.626;12.922;2022-09-30T19:01:38;19.53;;;11.13;;
14167;SDS011;7163;50.626;12.922;2022-09-30T19:06:40;21.93;;;12.83;;
14167;SDS011;7163;50.626;12.922;2022-09-30T19:11:42;10.07;;;6.63;;
14167;SDS011;7163;50.626;12.922;2022-09-30T19:16:43;11.80;;;7.23;;
14167;SDS011;7163;50.626;12.922;2022-09-30T19:21:46;12.33;;;6.50;;
14167;SDS011;7163;50.626;12.922;2022-09-30T19:26:47;9.30;;;6.00;;
14167;SDS011;7163;50.626;12.922;2022-09-30T19:31:48;11.37;;;7.80;;
14167;SDS011;7163;50.626;12.922;2022-09-30T19:36:48;13.10;;;8.30;;
14167;SDS011;7163;50.626;12.922;2022-09-30T19:41:48;14.67;;;9.63;;
14167;SDS011;7163;50.626;12.922;2022-09-30T19:46:49;53.90;;;18.97;;
14167;SDS011;7163;50.626;12.922;2022-09-30T19:51:50;18.10;;;11.47;;
14167;SDS011;7163;50.626;12.922;2022-09-30T19:56:51;17.97;;;12.23;;
14167;SDS011;7163;50.626;12.922;2022-09-30T20:01:52;15.83;;;10.80;;
14167;SDS011;7163;50.626;12.922;2022-09-30T20:06:53;27.27;;;17.23;;
14167;SDS011;7163;50.626;12.922;2022-09-30T20:11:53;18.03;;;12.83;;
14167;SDS011;7163;50.626;12.922;2022-09-30T20:16:53;16.40;;;11.93;;
14167;SDS011;7163;50.626;12.922;2022-09-30T20:21:54;19.70;;;11.47;;
14167;SDS011;7163;50.626;12.922;2022-09-30T20:26:54;17.80;;;11.47;;
14167;SDS011;7163;50.626;12.922;2022-09-30T20:31:55;21.13;;;12.53;;
14167;SDS011;7163;50.626;12.922;2022-09-30T20:36:56;21.37;;;13.63;;
14167;SDS011;7163;50.626;12.922;2022-09-30T20:41:56;22.87;;;14.10;;
14167;SDS011;7163;50.626;12.922;2022-09-30T20:46:57;21.80;;;13.63;;
14167;SDS011;7163;50.626;12.922;2022-09-30T20:51:58;21.93;;;13.13;;
14167;SDS011;7163;50.626;12.922;2022-09-30T20:57:01;24.70;;;14.93;;
14167;SDS011;7163;50.626;12.922;2022-09-30T21:02:02;20.33;;;12.20;;
14167;SDS011;7163;50.626;12.922;2022-09-30T21:07:05;13.07;;;9.40;;
14167;SDS011;7163;50.626;12.922;2022-09-30T21:12:06;16.43;;;11.50;;
14167;SDS011;7163;50.626;12.922;2022-09-30T21:17:07;15.73;;;11.60;;
14167;SDS011;7163;50.626;12.922;2022-09-30T21:22:08;23.57;;;17.57;;
14167;SDS011;7163;50.626;12.922;2022-09-30T21:27:09;12.93;;;8.33;;
14167;SDS011;7163;50.626;12.922;2022-09-30T21:32:09;13.90;;;8.73;;
14167;SDS011;7163;50.626;12.922;2022-09-30T21:37:09;13.13;;;8.50;;
14167;SDS011;7163;50.626;12.922;2022-09-30T21:42:10;15.40;;;8.67;;
14167;SDS011;7163;50.626;12.922;2022-09-30T21:47:10;12.87;;;8.10;;
14167;SDS011;7163;50.626;12.922;2022-09-30T21:52:11;9.63;;;6.80;;
14167;SDS011;7163;50.626;12.922;2022-09-30T21:57:11;11.63;;;7.90;;
14167;SDS011;7163;50.626;12.922;2022-09-30T22:02:11;10.30;;;7.40;;
14167;SDS011;7163;50.626;12.922;2022-09-30T22:07:12;14.07;;;8.97;;
14167;SDS011;7163;50.626;12.922;2022-09-30T22:12:14;14.03;;;8.83;;
14167;SDS011;7163;50.626;12.922;2022-09-30T22:17:14;13.47;;;7.20;;
14167;SDS011;7163;50.626;12.922;2022-09-30T22:22:15;10.63;;;7.57;;
14167;SDS011;7163;50.626;12.922;2022-09-30T22:27:15;11.20;;;7.97;;
14167;SDS011;7163;50.626;12.922;2022-09-30T22:32:16;11.83;;;7.33;;
14167;SDS011;7163;50.626;12.922;2022-09-30T22:37:16;10.27;;;6.43;;
14167;SDS011;7163;50.626;12.922;2022-09-30T22:42:35;9.27;;;6.60;;
14167;SDS011;7163;50.626;12.922;2022-09-30T22:47:36;9.63;;;6.27;;
14167;SDS011;7163;50.626;12.922;2022-09-30T22:52:37;8.43;;;6.10;;
14167;SDS011;7163;50.626;12.922;2022-09-30T22:57:38;8.03;;;5.87;;
14167;SDS011;7163;50.626;12.922;2022-09-30T23:02:38;11.50;;;5.73;;
14167;SDS011;7163;50.626;12.922;2022-09-30T23:07:41;9.47;;;6.60;;
14167;SDS011;7163;50.626;12.922;2022-09-30T23:12:41;10.37;;;6.63;;
14167;SDS011;7163;50.626;12.922;2022-09-30T23:17:41;11.97;;;6.87;;
14167;SDS011;7163;50.626;12.922;2022-09-30T23:22:42;11.40;;;7.27;;
14167;SDS011;7163;50.626;12.922;2022-09-30T23:27:46;16.47;;;8.73;;
14167;SDS011;7163;50.626;12.922;2022-09-30T23:32:47;15.10;;;8.80;;
14167;SDS011;7163;50.626;12.922;2022-09-30T23:37:48;15.13;;;8.43;;
14167;SDS011;7163;50.626;12.922;2022-09-30T23:42:50;12.30;;;7.90;;
14167;SDS011;7163;50.626;12.922;2022-09-30T23:47:53;13.67;;;7.80;;
14167;SDS011;7163;50.626;12.922;2022-09-30T23:52:55;13.20;;;8.60;;
14167;SDS011;7163;50.626;12.922;2022-09-30T23:57:57;12.17;;;7.73;;
